sensor_id;sensor_type;location;lat;lon;timestamp;temperature;humidity
40914;DHT22;26638;50.990;4.676;2024-03-02T07:14:07;21.80;99.80
40914;DHT22;26638;50.990;4.676;2024-03-02T07:16:32;20.80;99.20
40914;DHT22;26638;50.990;4.676;2024-03-02T07:19:00;21.20;97.70
40914;DHT22;26638;50.990;4.676;2024-03-02T07:21:27;21.70;96.30
40914;DHT22;26638;50.990;4.676;2024-03-02T07:23:53;22.10;95.20
40914;DHT22;26638;50.990;4.676;2024-03-02T07:26:19;22.40;94.20
40914;DHT22;26638;50.990;4.676;2024-03-02T07:28:46;22.60;93.70
40914;DHT22;26638;50.990;4.676;2024-03-02T07:31:13;22.70;93.00
40914;DHT22;26638;50.990;4.676;2024-03-02T07:33:38;22.80;92.40
40914;DHT22;26638;50.990;4.676;2024-03-02T07:36:04;22.90;92.30
40914;DHT22;26638;50.990;4.676;2024-03-02T07:38:31;23.00;91.30
40914;DHT22;26638;50.990;4.676;2024-03-02T07:40:57;23.00;90.90
40914;DHT22;26638;50.990;4.676;2024-03-02T07:43:23;23.00;90.70
40914;DHT22;26638;50.990;4.676;2024-03-02T07:45:49;23.00;90.30
40914;DHT22;26638;50.990;4.676;2024-03-02T07:48:15;23.00;90.20
40914;DHT22;26638;50.990;4.676;2024-03-02T07:50:40;23.00;89.70
40914;DHT22;26638;50.990;4.676;2024-03-02T07:53:06;23.10;89.70
40914;DHT22;26638;50.990;4.676;2024-03-02T07:55:33;23.10;89.70
40914;DHT22;26638;50.990;4.676;2024-03-02T07:58:00;23.10;89.90
40914;DHT22;26638;50.990;4.676;2024-03-02T08:00:25;23.10;90.10
40914;DHT22;26638;50.990;4.676;2024-03-02T08:02:52;23.10;89.70
40914;DHT22;26638;50.990;4.676;2024-03-02T08:05:18;23.20;90.00
40914;DHT22;26638;50.990;4.676;2024-03-02T08:07:47;23.20;90.20
40914;DHT22;26638;50.990;4.676;2024-03-02T08:10:13;23.20;90.30
40914;DHT22;26638;50.990;4.676;2024-03-02T08:12:39;23.10;90.50
40914;DHT22;26638;50.990;4.676;2024-03-02T08:15:05;23.20;90.20
40914;DHT22;26638;50.990;4.676;2024-03-02T08:17:31;23.20;90.20
40914;DHT22;26638;50.990;4.676;2024-03-02T08:19:57;23.20;90.70
40914;DHT22;26638;50.990;4.676;2024-03-02T08:22:23;23.40;88.80
40914;DHT22;26638;50.990;4.676;2024-03-02T08:24:51;23.40;90.10
40914;DHT22;26638;50.990;4.676;2024-03-02T08:27:16;23.40;89.50
40914;DHT22;26638;50.990;4.676;2024-03-02T08:29:42;23.30;90.00
40914;DHT22;26638;50.990;4.676;2024-03-02T08:32:08;23.30;89.80
40914;DHT22;26638;50.990;4.676;2024-03-02T08:34:33;23.30;89.70
40914;DHT22;26638;50.990;4.676;2024-03-02T08:37:02;23.30;89.70
40914;DHT22;26638;50.990;4.676;2024-03-02T08:39:28;23.20;89.70
40914;DHT22;26638;50.990;4.676;2024-03-02T08:41:54;23.20;90.10
40914;DHT22;26638;50.990;4.676;2024-03-02T08:44:20;23.20;89.90
40914;DHT22;26638;50.990;4.676;2024-03-02T08:46:45;23.20;89.20
40914;DHT22;26638;50.990;4.676;2024-03-02T08:49:12;23.20;89.50
40914;DHT22;26638;50.990;4.676;2024-03-02T08:51:37;23.20;88.90
40914;DHT22;26638;50.990;4.676;2024-03-02T08:54:03;23.20;89.30
40914;DHT22;26638;50.990;4.676;2024-03-02T08:56:30;23.30;88.90
40914;DHT22;26638;50.990;4.676;2024-03-02T08:58:56;23.30;89.20
40914;DHT22;26638;50.990;4.676;2024-03-02T09:01:21;23.30;89.00
40914;DHT22;26638;50.990;4.676;2024-03-02T09:03:47;23.30;89.50
40914;DHT22;26638;50.990;4.676;2024-03-02T09:06:15;23.30;89.60
40914;DHT22;26638;50.990;4.676;2024-03-02T09:08:42;23.30;85.70
40914;DHT22;26638;50.990;4.676;2024-03-02T09:11:09;23.20;88.40
40914;DHT22;26638;50.990;4.676;2024-03-02T09:13:36;23.20;87.60
40914;DHT22;26638;50.990;4.676;2024-03-02T09:16:02;23.30;86.10
40914;DHT22;26638;50.990;4.676;2024-03-02T09:18:30;23.10;86.20
40914;DHT22;26638;50.990;4.676;2024-03-02T09:21:00;23.20;86.60
40914;DHT22;26638;50.990;4.676;2024-03-02T09:23:25;23.10;87.00
40914;DHT22;26638;50.990;4.676;2024-03-02T09:25:51;23.00;86.90
40914;DHT22;26638;50.990;4.676;2024-03-02T09:28:17;23.00;86.90
40914;DHT22;26638;50.990;4.676;2024-03-02T09:30:42;23.00;86.90
40914;DHT22;26638;50.990;4.676;2024-03-02T09:33:08;23.00;87.50
40914;DHT22;26638;50.990;4.676;2024-03-02T09:35:33;23.00;87.40
40914;DHT22;26638;50.990;4.676;2024-03-02T09:37:59;23.00;87.50
40914;DHT22;26638;50.990;4.676;2024-03-02T09:40:25;23.00;87.60
40914;DHT22;26638;50.990;4.676;2024-03-02T09:42:51;23.00;87.10
40914;DHT22;26638;50.990;4.676;2024-03-02T09:45:25;23.00;87.20
40914;DHT22;26638;50.990;4.676;2024-03-02T09:47:51;23.00;87.50
40914;DHT22;26638;50.990;4.676;2024-03-02T09:50:16;23.00;86.90
40914;DHT22;26638;50.990;4.676;2024-03-02T09:52:42;23.10;87.70
40914;DHT22;26638;50.990;4.676;2024-03-02T09:55:09;23.10;87.40
40914;DHT22;26638;50.990;4.676;2024-03-02T09:57:35;23.10;87.10
40914;DHT22;26638;50.990;4.676;2024-03-02T10:00:01;23.10;87.00
40914;DHT22;26638;50.990;4.676;2024-03-02T10:02:27;23.20;87.00
40914;DHT22;26638;50.990;4.676;2024-03-02T10:04:52;23.10;86.40
40914;DHT22;26638;50.990;4.676;2024-03-02T10:07:19;23.30;86.50
40914;DHT22;26638;50.990;4.676;2024-03-02T10:09:46;23.20;87.20
40914;DHT22;26638;50.990;4.676;2024-03-02T10:12:15;23.30;87.00
40914;DHT22;26638;50.990;4.676;2024-03-02T10:14:41;23.30;87.10
40914;DHT22;26638;50.990;4.676;2024-03-02T10:17:10;23.30;86.80
40914;DHT22;26638;50.990;4.676;2024-03-02T10:19:36;23.30;87.10
40914;DHT22;26638;50.990;4.676;2024-03-02T10:22:03;23.30;86.90
40914;DHT22;26638;50.990;4.676;2024-03-02T10:24:42;23.30;86.50
40914;DHT22;26638;50.990;4.676;2024-03-02T10:27:16;23.30;86.80
40914;DHT22;26638;50.990;4.676;2024-03-02T10:29:42;23.40;87.10
40914;DHT22;26638;50.990;4.676;2024-03-02T10:32:11;23.40;87.00
40914;DHT22;26638;50.990;4.676;2024-03-02T10:34:40;23.40;86.80
40914;DHT22;26638;50.990;4.676;2024-03-02T10:37:07;23.40;86.80
40914;DHT22;26638;50.990;4.676;2024-03-02T10:39:34;23.40;86.80
40914;DHT22;26638;50.990;4.676;2024-03-02T10:42:02;23.40;86.80
40914;DHT22;26638;50.990;4.676;2024-03-02T10:44:28;23.40;86.80
40914;DHT22;26638;50.990;4.676;2024-03-02T10:46:55;23.40;87.20
40914;DHT22;26638;50.990;4.676;2024-03-02T10:49:22;23.40;86.70
40914;DHT22;26638;50.990;4.676;2024-03-02T10:51:49;23.40;86.50
40914;DHT22;26638;50.990;4.676;2024-03-02T10:54:15;23.40;86.70
40914;DHT22;26638;50.990;4.676;2024-03-02T10:56:41;23.40;86.70
40914;DHT22;26638;50.990;4.676;2024-03-02T10:59:27;23.40;86.80
40914;DHT22;26638;50.990;4.676;2024-03-02T11:02:01;23.50;86.90
40914;DHT22;26638;50.990;4.676;2024-03-02T11:04:28;23.50;86.80
40914;DHT22;26638;50.990;4.676;2024-03-02T11:09:29;23.70;86.30
40914;DHT22;26638;50.990;4.676;2024-03-02T11:14:37;23.80;86.00
40914;DHT22;26638;50.990;4.676;2024-03-02T11:17:04;23.80;85.80
40914;DHT22;26638;50.990;4.676;2024-03-02T11:19:34;23.90;85.70
40914;DHT22;26638;50.990;4.676;2024-03-02T11:22:02;23.90;85.50
40914;DHT22;26638;50.990;4.676;2024-03-02T11:24:29;23.90;85.80
40914;DHT22;26638;50.990;4.676;2024-03-02T11:27:03;23.90;85.10
40914;DHT22;26638;50.990;4.676;2024-03-02T11:32:03;23.90;85.20
40914;DHT22;26638;50.990;4.676;2024-03-02T11:34:35;23.90;85.10
40914;DHT22;26638;50.990;4.676;2024-03-02T11:37:02;23.90;85.00
40914;DHT22;26638;50.990;4.676;2024-03-02T11:39:29;23.90;84.70
40914;DHT22;26638;50.990;4.676;2024-03-02T11:41:55;23.90;84.70
40914;DHT22;26638;50.990;4.676;2024-03-02T11:44:21;23.90;84.60
40914;DHT22;26638;50.990;4.676;2024-03-02T11:47:05;23.90;84.50
40914;DHT22;26638;50.990;4.676;2024-03-02T11:49:43;23.90;84.50
40914;DHT22;26638;50.990;4.676;2024-03-02T11:52:11;23.90;84.40
40914;DHT22;26638;50.990;4.676;2024-03-02T11:54:41;23.90;84.30
40914;DHT22;26638;50.990;4.676;2024-03-02T11:57:12;23.90;84.60
40914;DHT22;26638;50.990;4.676;2024-03-02T11:59:38;23.90;85.20
40914;DHT22;26638;50.990;4.676;2024-03-02T12:02:03;23.80;85.00
40914;DHT22;26638;50.990;4.676;2024-03-02T12:04:30;23.90;85.10
40914;DHT22;26638;50.990;4.676;2024-03-02T12:07:00;23.80;84.50
40914;DHT22;26638;50.990;4.676;2024-03-02T12:09:29;23.80;84.40
40914;DHT22;26638;50.990;4.676;2024-03-02T12:12:08;23.80;84.30
40914;DHT22;26638;50.990;4.676;2024-03-02T12:14:36;23.80;84.80
40914;DHT22;26638;50.990;4.676;2024-03-02T12:17:03;23.80;84.70
40914;DHT22;26638;50.990;4.676;2024-03-02T12:19:29;23.80;85.20
40914;DHT22;26638;50.990;4.676;2024-03-02T12:21:56;23.70;84.80
40914;DHT22;26638;50.990;4.676;2024-03-02T12:24:23;23.70;85.30
40914;DHT22;26638;50.990;4.676;2024-03-02T12:26:54;23.70;85.30
40914;DHT22;26638;50.990;4.676;2024-03-02T12:29:20;23.70;85.30
40914;DHT22;26638;50.990;4.676;2024-03-02T12:31:50;23.80;85.10
40914;DHT22;26638;50.990;4.676;2024-03-02T12:34:17;23.70;85.10
40914;DHT22;26638;50.990;4.676;2024-03-02T12:36:43;23.70;85.60
40914;DHT22;26638;50.990;4.676;2024-03-02T12:39:13;23.70;85.30
40914;DHT22;26638;50.990;4.676;2024-03-02T12:41:39;23.70;85.40
40914;DHT22;26638;50.990;4.676;2024-03-02T12:44:05;23.70;85.30
40914;DHT22;26638;50.990;4.676;2024-03-02T12:46:34;23.60;85.30
40914;DHT22;26638;50.990;4.676;2024-03-02T12:49:21;23.60;85.00
40914;DHT22;26638;50.990;4.676;2024-03-02T12:51:47;23.60;85.20
40914;DHT22;26638;50.990;4.676;2024-03-02T12:54:17;23.60;85.30
40914;DHT22;26638;50.990;4.676;2024-03-02T12:56:43;23.70;85.10
40914;DHT22;26638;50.990;4.676;2024-03-02T12:59:19;23.60;85.30
40914;DHT22;26638;50.990;4.676;2024-03-02T13:01:53;23.60;85.60
40914;DHT22;26638;50.990;4.676;2024-03-02T13:04:26;23.60;85.30
40914;DHT22;26638;50.990;4.676;2024-03-02T13:06:52;23.60;85.20
40914;DHT22;26638;50.990;4.676;2024-03-02T13:09:18;23.60;84.90
40914;DHT22;26638;50.990;4.676;2024-03-02T13:11:44;23.60;85.30
40914;DHT22;26638;50.990;4.676;2024-03-02T13:14:10;23.60;85.00
40914;DHT22;26638;50.990;4.676;2024-03-02T13:16:42;23.60;85.80
40914;DHT22;26638;50.990;4.676;2024-03-02T13:19:09;23.60;85.40
40914;DHT22;26638;50.990;4.676;2024-03-02T13:21:35;23.60;85.00
40914;DHT22;26638;50.990;4.676;2024-03-02T13:24:00;23.50;85.50
40914;DHT22;26638;50.990;4.676;2024-03-02T13:26:26;23.50;85.70
40914;DHT22;26638;50.990;4.676;2024-03-02T13:28:53;23.50;85.80
40914;DHT22;26638;50.990;4.676;2024-03-02T13:31:18;23.50;85.60
40914;DHT22;26638;50.990;4.676;2024-03-02T13:33:44;23.50;85.80
40914;DHT22;26638;50.990;4.676;2024-03-02T13:36:10;23.50;85.40
40914;DHT22;26638;50.990;4.676;2024-03-02T13:38:35;23.50;85.80
40914;DHT22;26638;50.990;4.676;2024-03-02T13:41:01;23.50;85.70
40914;DHT22;26638;50.990;4.676;2024-03-02T13:43:27;23.50;85.80
40914;DHT22;26638;50.990;4.676;2024-03-02T13:45:57;23.50;86.00
40914;DHT22;26638;50.990;4.676;2024-03-02T13:48:23;23.50;86.00
40914;DHT22;26638;50.990;4.676;2024-03-02T13:50:51;23.50;85.40
40914;DHT22;26638;50.990;4.676;2024-03-02T13:53:18;23.50;85.60
40914;DHT22;26638;50.990;4.676;2024-03-02T13:55:44;23.40;86.20
40914;DHT22;26638;50.990;4.676;2024-03-02T13:58:10;23.40;86.20
40914;DHT22;26638;50.990;4.676;2024-03-02T14:00:36;23.40;85.90
40914;DHT22;26638;50.990;4.676;2024-03-02T14:03:03;23.40;86.00
40914;DHT22;26638;50.990;4.676;2024-03-02T14:05:29;23.40;86.40
40914;DHT22;26638;50.990;4.676;2024-03-02T14:07:54;23.40;86.50
40914;DHT22;26638;50.990;4.676;2024-03-02T14:10:20;23.40;86.10
40914;DHT22;26638;50.990;4.676;2024-03-02T14:12:48;23.40;86.40
40914;DHT22;26638;50.990;4.676;2024-03-02T14:15:14;23.30;85.80
40914;DHT22;26638;50.990;4.676;2024-03-02T14:17:40;23.40;86.30
40914;DHT22;26638;50.990;4.676;2024-03-02T14:20:06;23.40;86.40
40914;DHT22;26638;50.990;4.676;2024-03-02T14:22:32;23.40;86.20
40914;DHT22;26638;50.990;4.676;2024-03-02T14:24:59;23.40;85.80
40914;DHT22;26638;50.990;4.676;2024-03-02T14:27:25;23.30;86.20
40914;DHT22;26638;50.990;4.676;2024-03-02T14:29:51;23.30;85.90
40914;DHT22;26638;50.990;4.676;2024-03-02T14:32:17;23.30;86.20
40914;DHT22;26638;50.990;4.676;2024-03-02T14:34:42;23.30;86.30
40914;DHT22;26638;50.990;4.676;2024-03-02T14:37:08;23.30;86.30
40914;DHT22;26638;50.990;4.676;2024-03-02T14:39:34;23.30;86.30
40914;DHT22;26638;50.990;4.676;2024-03-02T14:42:01;23.30;86.20
40914;DHT22;26638;50.990;4.676;2024-03-02T14:44:27;23.30;86.20
40914;DHT22;26638;50.990;4.676;2024-03-02T14:46:52;23.30;86.60
40914;DHT22;26638;50.990;4.676;2024-03-02T14:49:18;23.30;86.60
40914;DHT22;26638;50.990;4.676;2024-03-02T14:51:44;23.30;86.60
40914;DHT22;26638;50.990;4.676;2024-03-02T14:54:10;23.20;86.30
40914;DHT22;26638;50.990;4.676;2024-03-02T14:56:35;23.30;86.60
40914;DHT22;26638;50.990;4.676;2024-03-02T14:59:01;23.30;86.30
40914;DHT22;26638;50.990;4.676;2024-03-02T15:01:26;23.40;86.60
40914;DHT22;26638;50.990;4.676;2024-03-02T15:03:52;23.50;86.20
40914;DHT22;26638;50.990;4.676;2024-03-02T15:06:18;23.60;85.80
40914;DHT22;26638;50.990;4.676;2024-03-02T15:08:44;23.60;85.50
40914;DHT22;26638;50.990;4.676;2024-03-02T15:11:12;23.70;85.60
40914;DHT22;26638;50.990;4.676;2024-03-02T15:13:38;23.70;85.10
40914;DHT22;26638;50.990;4.676;2024-03-02T15:16:04;23.70;84.90
40914;DHT22;26638;50.990;4.676;2024-03-02T15:18:30;23.80;85.00
40914;DHT22;26638;50.990;4.676;2024-03-02T15:20:56;23.80;84.80
40914;DHT22;26638;50.990;4.676;2024-03-02T15:23:21;23.80;84.60
40914;DHT22;26638;50.990;4.676;2024-03-02T15:25:47;23.80;84.50
40914;DHT22;26638;50.990;4.676;2024-03-02T15:28:13;23.90;84.30
40914;DHT22;26638;50.990;4.676;2024-03-02T15:30:39;23.80;84.50
40914;DHT22;26638;50.990;4.676;2024-03-02T15:33:04;23.90;84.60
40914;DHT22;26638;50.990;4.676;2024-03-02T15:35:30;23.80;84.30
40914;DHT22;26638;50.990;4.676;2024-03-02T15:37:56;23.90;84.30
40914;DHT22;26638;50.990;4.676;2024-03-02T15:40:22;23.80;84.10
40914;DHT22;26638;50.990;4.676;2024-03-02T15:42:47;23.90;84.10
40914;DHT22;26638;50.990;4.676;2024-03-02T15:45:13;23.80;84.10
40914;DHT22;26638;50.990;4.676;2024-03-02T15:47:39;23.80;84.20
40914;DHT22;26638;50.990;4.676;2024-03-02T15:50:05;23.90;84.10
40914;DHT22;26638;50.990;4.676;2024-03-02T15:52:32;23.80;84.00
40914;DHT22;26638;50.990;4.676;2024-03-02T15:54:57;23.80;84.10
40914;DHT22;26638;50.990;4.676;2024-03-02T15:57:23;23.80;83.90
40914;DHT22;26638;50.990;4.676;2024-03-02T15:59:49;23.80;84.10
40914;DHT22;26638;50.990;4.676;2024-03-02T16:02:17;23.80;84.20
40914;DHT22;26638;50.990;4.676;2024-03-02T16:04:43;23.80;84.20
40914;DHT22;26638;50.990;4.676;2024-03-02T16:07:09;23.80;84.10
